Time;durP1;ratioP1;P1;durP2;ratioP2;P2;SDS_P1;SDS_P2;PMS_P1;PMS_P2;Temp;Humidity;BMP_temperature;BMP_pressure;BME280_temperature;BME280_humidity;BME280_pressure;Samples;Min_cycle;Max_cycle;Signal;HPM_P1;HPM_P2
2021/09/07 00:00:14;;;;;;;17.38;6.72;;;;;;;17.39;99.53;101753.69;4980147;28;20446;-67
2021/09/07 00:02:40;;;;;;;14.88;7.30;;;;;;;17.28;100.00;101758.25;4984206;28;20490;-67
2021/09/07 00:05:09;;;;;;;16.73;7.07;;;;;;;17.32;100.00;101753.63;4975361;28;20035;-67
2021/09/07 00:07:34;;;;;;;16.60;6.85;;;;;;;17.35;100.00;101747.41;4971637;28;20031;-67
2021/09/07 00:10:00;;;;;;;16.55;7.20;;;;;;;17.32;100.00;101747.38;4988597;28;20038;-67
2021/09/07 00:12:26;;;;;;;19.50;7.85;;;;;;;17.33;100.00;101747.00;4987979;28;20038;-67
2021/09/07 00:14:51;;;;;;;15.90;7.13;;;;;;;17.28;100.00;101750.09;4953965;28;20253;-67
2021/09/07 00:17:17;;;;;;;14.63;6.65;;;;;;;17.32;100.00;101747.38;4972851;28;20030;-67
2021/09/07 00:19:43;;;;;;;15.25;7.28;;;;;;;17.33;100.00;101738.84;4975442;28;20034;-67
2021/09/07 00:22:09;;;;;;;15.88;7.22;;;;;;;17.35;100.00;101754.81;4968618;28;20427;-67
2021/09/07 00:24:34;;;;;;;15.60;7.40;;;;;;;17.38;100.00;101754.06;4968330;28;20031;-67
2021/09/07 00:27:00;;;;;;;16.52;7.00;;;;;;;17.33;100.00;101755.19;4982239;28;20037;-67
2021/09/07 00:29:27;;;;;;;17.88;7.20;;;;;;;17.38;100.00;101762.25;4963585;28;20514;-67
2021/09/07 00:31:52;;;;;;;19.58;7.93;;;;;;;17.41;100.00;101759.56;4974723;28;20165;-67
2021/09/07 00:34:23;;;;;;;15.65;7.00;;;;;;;17.40;100.00;101754.47;4976844;28;20152;-67
2021/09/07 00:36:48;;;;;;;16.77;7.60;;;;;;;17.37;100.00;101753.28;4983453;28;20038;-67
2021/09/07 00:39:14;;;;;;;13.05;6.25;;;;;;;17.39;100.00;101748.25;4982149;28;20042;-67
2021/09/07 00:41:41;;;;;;;15.57;6.97;;;;;;;17.42;100.00;101746.72;4948435;28;20046;-67
2021/09/07 00:44:14;;;;;;;19.70;8.48;;;;;;;17.39;100.00;101744.72;4975819;28;20046;-67
2021/09/07 00:46:40;;;;;;;18.33;7.53;;;;;;;17.37;100.00;101747.84;4954392;28;20039;-67
2021/09/07 00:49:05;;;;;;;14.63;6.93;;;;;;;17.39;100.00;101736.56;4954868;28;20049;-67
2021/09/07 00:51:32;;;;;;;19.00;7.05;;;;;;;17.34;100.00;101734.97;4974637;28;20034;-66
2021/09/07 00:53:58;;;;;;;15.23;7.13;;;;;;;17.31;100.00;101741.16;4971778;28;20057;-67
2021/09/07 00:56:24;;;;;;;15.18;7.07;;;;;;;17.34;100.00;101743.16;4969075;28;20031;-67
2021/09/07 00:58:52;;;;;;;15.07;6.85;;;;;;;17.32;100.00;101742.72;4982949;28;20090;-67
2021/09/07 01:01:17;;;;;;;16.98;7.90;;;;;;;17.27;100.00;101732.16;4970587;28;20038;-67
2021/09/07 01:03:44;;;;;;;15.25;7.30;;;;;;;17.28;100.00;101731.03;4974567;28;20082;-67
2021/09/07 01:06:10;;;;;;;18.98;7.32;;;;;;;17.24;100.00;101737.56;4985325;28;20068;-67
2021/09/07 01:08:36;;;;;;;16.70;7.18;;;;;;;17.27;100.00;101740.31;4982353;28;20575;-67
2021/09/07 01:11:02;;;;;;;15.73;7.05;;;;;;;17.20;100.00;101734.03;4972044;28;20130;-67
2021/09/07 01:13:29;;;;;;;15.55;7.05;;;;;;;17.22;100.00;101732.50;4981929;28;20041;-67
2021/09/07 01:15:55;;;;;;;18.88;7.53;;;;;;;17.24;100.00;101746.53;4981885;28;20731;-67
2021/09/07 01:18:21;;;;;;;14.98;6.93;;;;;;;17.30;100.00;101741.53;4975655;28;20058;-67
2021/09/07 01:20:47;;;;;;;14.70;7.20;;;;;;;17.28;100.00;101727.50;4979004;28;20041;-67
2021/09/07 01:23:12;;;;;;;16.63;8.02;;;;;;;17.13;100.00;101724.63;4980785;28;20046;-67
2021/09/07 01:25:38;;;;;;;14.98;6.68;;;;;;;17.19;100.00;101727.03;4975055;28;20113;-67
2021/09/07 01:28:03;;;;;;;15.15;6.47;;;;;;;17.22;100.00;101732.50;4978437;28;20034;-67
2021/09/07 01:30:29;;;;;;;15.55;7.15;;;;;;;17.20;100.00;101736.75;4989012;28;20029;-67
2021/09/07 01:32:56;;;;;;;14.85;7.07;;;;;;;17.21;100.00;101733.66;4984034;28;20074;-67
2021/09/07 01:35:22;;;;;;;12.60;6.03;;;;;;;17.16;100.00;101739.44;4976266;28;20042;-67
2021/09/07 01:37:47;;;;;;;14.13;6.60;;;;;;;17.09;100.00;101729.25;4968903;28;20038;-67
2021/09/07 01:40:13;;;;;;;13.48;5.80;;;;;;;17.08;100.00;101738.56;4979110;28;20124;-67
2021/09/07 01:42:41;;;;;;;18.02;6.97;;;;;;;17.02;100.00;101729.16;4975074;28;20074;-67
2021/09/07 01:45:07;;;;;;;15.70;6.43;;;;;;;16.95;100.00;101728.31;4982487;28;20038;-67
2021/09/07 01:47:33;;;;;;;15.18;6.45;;;;;;;16.89;100.00;101727.88;4956571;28;20056;-67
2021/09/07 01:49:58;;;;;;;14.85;6.85;;;;;;;16.87;100.00;101724.72;4962048;28;20038;-67
2021/09/07 01:52:24;;;;;;;17.70;6.90;;;;;;;16.84;100.00;101725.44;4979290;28;20046;-67
2021/09/07 01:54:50;;;;;;;17.17;7.07;;;;;;;16.85;100.00;101724.31;4979359;28;20030;-67
2021/09/07 01:57:16;;;;;;;20.15;7.40;;;;;;;16.83;100.00;101728.53;4973956;28;20121;-67
2021/09/07 01:59:42;;;;;;;16.23;7.18;;;;;;;16.73;100.00;101738.16;4974307;28;20038;-67
2021/09/07 02:02:08;;;;;;;14.90;7.22;;;;;;;16.72;100.00;101739.31;4973952;28;20031;-67
2021/09/07 02:04:34;;;;;;;15.68;6.47;;;;;;;16.74;100.00;101745.13;4977943;28;20033;-67
2021/09/07 02:07:01;;;;;;;15.45;7.43;;;;;;;16.68;100.00;101740.41;4975069;28;20114;-67
2021/09/07 02:09:26;;;;;;;17.15;7.40;;;;;;;16.66;100.00;101734.56;4975071;28;20117;-67
2021/09/07 02:11:54;;;;;;;16.63;7.20;;;;;;;16.68;100.00;101740.41;4975463;28;20034;-66
2021/09/07 02:14:20;;;;;;;17.58;6.75;;;;;;;16.65;100.00;101741.13;4969635;28;20042;-67
2021/09/07 02:16:47;;;;;;;14.00;6.25;;;;;;;16.65;100.00;101746.56;4974693;28;20061;-67
2021/09/07 02:19:13;;;;;;;19.10;7.80;;;;;;;16.64;100.00;101745.03;4974490;28;20027;-67
2021/09/07 02:21:39;;;;;;;15.80;7.00;;;;;;;16.64;100.00;101739.56;4973320;28;20050;-67
2021/09/07 02:24:05;;;;;;;16.13;7.32;;;;;;;16.59;100.00;101739.91;4974248;28;20042;-67
2021/09/07 02:26:31;;;;;;;16.00;7.25;;;;;;;16.50;100.00;101739.38;4968603;28;20035;-67
2021/09/07 02:28:57;;;;;;;18.75;7.38;;;;;;;16.50;100.00;101739.38;4977750;28;20089;-67
2021/09/07 02:31:22;;;;;;;15.77;7.20;;;;;;;16.42;100.00;101740.41;4974118;28;20031;-67
2021/09/07 02:33:49;;;;;;;14.32;7.15;;;;;;;16.43;100.00;101739.25;4975007;28;20065;-67
2021/09/07 02:36:20;;;;;;;14.68;7.10;;;;;;;16.38;100.00;101742.28;4971599;28;20031;-67
2021/09/07 02:38:47;;;;;;;17.70;7.20;;;;;;;16.39;100.00;101736.50;4988335;28;20042;-67
2021/09/07 02:41:12;;;;;;;18.35;7.28;;;;;;;16.38;100.00;101731.41;4972342;28;20081;-68
2021/09/07 02:43:38;;;;;;;15.25;6.95;;;;;;;16.26;100.00;101724.25;4975115;28;20022;-67
2021/09/07 02:46:05;;;;;;;15.55;6.82;;;;;;;16.31;100.00;101732.09;4973956;28;20066;-67
2021/09/07 02:48:30;;;;;;;18.67;7.22;;;;;;;16.34;100.00;101734.06;4966851;28;20402;-68
2021/09/07 02:50:56;;;;;;;14.82;6.95;;;;;;;16.24;100.00;101721.91;4977725;28;20034;-67
2021/09/07 02:53:24;;;;;;;18.33;7.93;;;;;;;16.28;100.00;101735.53;4990668;28;20118;-68
2021/09/07 02:55:50;;;;;;;16.63;8.00;;;;;;;16.21;100.00;101724.56;4955001;28;20078;-67
2021/09/07 02:58:16;;;;;;;17.60;7.13;;;;;;;16.21;100.00;101724.56;4974405;28;20023;-67
2021/09/07 03:00:41;;;;;;;18.38;7.75;;;;;;;16.13;100.00;101718.25;4958162;28;20042;-67
2021/09/07 03:03:09;;;;;;;20.33;7.78;;;;;;;16.13;100.00;101714.75;4973355;28;20492;-68
2021/09/07 03:05:35;;;;;;;14.68;7.03;;;;;;;16.13;100.00;101723.69;4973205;28;20492;-67
2021/09/07 03:08:03;;;;;;;17.08;7.40;;;;;;;16.08;100.00;101725.94;4972552;28;20597;-67
2021/09/07 03:10:31;;;;;;;17.02;7.20;;;;;;;16.10;100.00;101721.69;4969408;28;20050;-67
2021/09/07 03:12:56;;;;;;;16.30;7.05;;;;;;;16.09;100.00;101720.13;4960164;28;20439;-68
2021/09/07 03:15:23;;;;;;;16.27;6.97;;;;;;;16.07;100.00;101722.44;4977726;28;20057;-67
2021/09/07 03:17:49;;;;;;;17.02;7.78;;;;;;;16.02;100.00;101724.69;4967985;28;20085;-67
2021/09/07 03:20:14;;;;;;;19.27;7.60;;;;;;;16.05;100.00;101713.06;4969734;28;20122;-67
2021/09/07 03:22:41;;;;;;;16.38;7.00;;;;;;;16.03;100.00;101716.16;4982180;28;20014;-68
2021/09/07 03:25:07;;;;;;;15.15;7.07;;;;;;;15.94;100.00;101715.63;4990690;28;20487;-67
2021/09/07 03:27:34;;;;;;;16.30;7.40;;;;;;;15.98;100.00;101719.19;4972293;28;20109;-67
2021/09/07 03:30:00;;;;;;;13.38;6.28;;;;;;;15.98;100.00;101721.13;4977261;28;20042;-67
2021/09/07 03:32:26;;;;;;;17.08;6.95;;;;;;;15.98;100.00;101730.06;4980519;28;20039;-68
2021/09/07 03:34:53;;;;;;;15.02;7.10;;;;;;;16.00;100.00;101733.19;4974714;28;20035;-67
2021/09/07 03:37:18;;;;;;;14.63;7.22;;;;;;;16.00;100.00;101722.31;4966430;28;20038;-67
2021/09/07 03:39:44;;;;;;;15.93;7.15;;;;;;;15.94;100.00;101721.06;4966733;28;20520;-67
2021/09/07 03:42:10;;;;;;;16.90;6.80;;;;;;;15.89;100.00;101726.03;4970169;28;20113;-67
2021/09/07 03:44:36;;;;;;;14.52;6.85;;;;;;;15.87;100.00;101726.38;4968128;28;20032;-67
2021/09/07 03:47:04;;;;;;;16.60;7.00;;;;;;;15.78;100.00;101731.28;4969440;28;20110;-68
2021/09/07 03:49:30;;;;;;;17.02;6.85;;;;;;;15.74;100.00;101730.44;4972616;28;20568;-67
2021/09/07 03:51:56;;;;;;;21.75;7.30;;;;;;;15.68;100.00;101726.44;4971042;28;20034;-67
2021/09/07 03:54:21;;;;;;;15.90;6.97;;;;;;;15.71;100.00;101733.88;4958063;28;20627;-67
2021/09/07 03:56:48;;;;;;;17.70;7.15;;;;;;;15.67;100.00;101727.59;4977726;28;20027;-67
2021/09/07 03:59:13;;;;;;;16.95;7.75;;;;;;;15.67;100.00;101727.59;4964220;28;20400;-68
2021/09/07 04:01:41;;;;;;;17.48;7.60;;;;;;;15.69;100.00;101728.03;5011721;22;20117;-66
2021/09/07 04:04:10;;;;;;;17.70;8.43;;;;;;;15.58;100.00;101737.91;5002482;28;20080;-67
2021/09/07 04:06:36;;;;;;;15.73;7.40;;;;;;;15.57;100.00;101736.34;4999067;28;20088;-67
2021/09/07 04:09:02;;;;;;;16.48;7.07;;;;;;;15.54;100.00;101741.72;5007117;28;20040;-67
2021/09/07 04:11:28;;;;;;;14.93;7.20;;;;;;;15.58;100.00;101748.00;5006098;28;20124;-67
2021/09/07 04:13:55;;;;;;;17.25;7.30;;;;;;;15.56;100.00;101751.09;5011684;28;20087;-67
2021/09/07 04:16:21;;;;;;;15.07;7.45;;;;;;;15.53;100.00;101757.22;4991999;28;20036;-66
2021/09/07 04:18:48;;;;;;;18.48;7.50;;;;;;;15.58;100.00;101753.44;5010164;28;20379;-66
2021/09/07 04:21:14;;;;;;;17.95;7.80;;;;;;;15.56;100.00;101745.66;5007098;28;20036;-67
2021/09/07 04:23:39;;;;;;;17.55;7.40;;;;;;;15.55;100.00;101744.06;5002432;28;20116;-66
2021/09/07 04:26:05;;;;;;;16.77;7.13;;;;;;;15.57;100.00;101743.69;4997894;28;20032;-66
2021/09/07 04:28:31;;;;;;;17.85;7.13;;;;;;;15.56;100.00;101750.28;5008615;28;20049;-67
2021/09/07 04:30:56;;;;;;;15.07;7.53;;;;;;;15.54;100.00;101747.16;4999593;28;20042;-66
2021/09/07 04:33:21;;;;;;;18.15;7.68;;;;;;;15.57;100.00;101747.22;5000138;28;20099;-67
2021/09/07 04:35:47;;;;;;;16.25;7.60;;;;;;;15.54;100.00;101747.94;4992918;28;20026;-66
2021/09/07 04:38:12;;;;;;;19.23;7.78;;;;;;;15.56;100.00;101751.09;5005843;28;20509;-66
2021/09/07 04:40:38;;;;;;;17.67;7.57;;;;;;;15.56;100.00;101753.00;4999641;28;20042;-67
2021/09/07 04:43:03;;;;;;;18.50;7.70;;;;;;;15.56;100.00;101750.28;5013505;28;20432;-66
2021/09/07 04:45:29;;;;;;;18.52;7.60;;;;;;;15.56;100.00;101761.16;5013898;28;20529;-67
2021/09/07 04:47:55;;;;;;;17.52;6.95;;;;;;;15.46;100.00;101757.09;5018684;28;20068;-66
2021/09/07 04:50:21;;;;;;;20.17;7.07;;;;;;;15.50;100.00;101768.03;5009730;28;20174;-67
2021/09/07 04:52:47;;;;;;;16.02;7.53;;;;;;;15.52;100.00;101766.53;5000562;28;20144;-66
2021/09/07 04:55:12;;;;;;;17.20;7.97;;;;;;;15.55;100.00;101768.50;5005033;28;20038;-65
2021/09/07 04:57:38;;;;;;;16.63;6.82;;;;;;;15.51;100.00;101769.56;5008074;28;20029;-66
2021/09/07 05:00:04;;;;;;;19.50;8.05;;;;;;;15.51;100.00;101764.94;5011298;28;20044;-65
2021/09/07 05:02:34;;;;;;;17.85;7.78;;;;;;;15.52;100.00;101766.53;5003970;28;20034;-66
2021/09/07 05:05:04;;;;;;;16.63;8.52;;;;;;;15.49;100.00;101761.81;5014850;28;20025;-66
2021/09/07 05:07:29;;;;;;;17.63;7.53;;;;;;;15.48;100.00;101773.03;5011283;28;20033;-66
2021/09/07 05:09:55;;;;;;;16.88;7.35;;;;;;;15.51;100.00;101762.22;5010418;28;20046;-67
2021/09/07 05:12:20;;;;;;;20.25;9.00;;;;;;;15.53;100.00;101757.22;5006382;28;20099;-66
2021/09/07 05:14:46;;;;;;;21.98;8.15;;;;;;;15.54;100.00;101769.66;5014547;28;20021;-67
2021/09/07 05:17:11;;;;;;;18.13;7.72;;;;;;;15.52;100.00;101765.72;5010220;28;20045;-65
2021/09/07 05:19:37;;;;;;;19.23;7.00;;;;;;;15.57;100.00;101768.94;5003794;28;20040;-66
2021/09/07 05:22:02;;;;;;;18.92;8.50;;;;;;;15.63;100.00;101770.22;5014500;28;20037;-65
2021/09/07 05:24:28;;;;;;;15.40;7.30;;;;;;;15.68;100.00;101769.13;5008614;28;21330;-66
2021/09/07 05:26:53;;;;;;;18.58;7.60;;;;;;;15.70;100.00;101778.47;4985505;28;20034;-67
2021/09/07 05:29:19;;;;;;;17.00;7.30;;;;;;;15.73;100.00;101775.06;5007825;28;20041;-67
2021/09/07 05:31:45;;;;;;;19.33;8.52;;;;;;;15.67;100.00;101784.63;5002303;28;20095;-66
2021/09/07 05:34:10;;;;;;;20.48;8.20;;;;;;;15.71;100.00;101790.91;4998543;28;20693;-67
2021/09/07 05:36:35;;;;;;;18.88;8.40;;;;;;;15.75;100.00;101782.84;4994701;28;20042;-66
2021/09/07 05:39:01;;;;;;;16.20;7.72;;;;;;;15.62;100.00;101781.44;5005118;28;20038;-65
2021/09/07 05:41:27;;;;;;;19.38;7.00;;;;;;;15.72;100.00;101786.25;5007062;28;20038;-67
2021/09/07 05:43:52;;;;;;;18.05;7.97;;;;;;;15.75;100.00;101783.63;5002082;28;20041;-66
2021/09/07 05:46:17;;;;;;;16.85;7.03;;;;;;;15.72;100.00;101792.47;5010617;28;20034;-66
2021/09/07 05:48:45;;;;;;;19.65;7.32;;;;;;;15.71;100.00;101782.78;5010170;28;20565;-67
2021/09/07 05:51:11;;;;;;;17.55;6.85;;;;;;;15.76;100.00;101781.66;5003448;28;20087;-67
2021/09/07 05:53:39;;;;;;;16.38;7.45;;;;;;;15.79;100.00;101781.75;5011858;28;20039;-67
2021/09/07 05:56:04;;;;;;;17.35;7.38;;;;;;;15.79;100.00;101786.41;5005824;28;20053;-67
2021/09/07 05:58:30;;;;;;;16.50;7.50;;;;;;;15.79;100.00;101781.75;5011521;28;20489;-66
2021/09/07 06:00:55;;;;;;;20.00;8.55;;;;;;;15.73;100.00;101783.19;5008447;28;20034;-67
2021/09/07 06:03:21;;;;;;;17.45;7.75;;;;;;;15.75;100.00;101785.53;5003609;28;20511;-66
2021/09/07 06:05:46;;;;;;;18.83;7.97;;;;;;;15.78;100.00;101788.31;5002534;28;20109;-66
2021/09/07 06:08:12;;;;;;;17.08;7.38;;;;;;;15.72;100.00;101792.47;5007757;28;20119;-67
2021/09/07 06:10:37;;;;;;;18.45;7.65;;;;;;;15.73;100.00;101783.19;5011026;28;20046;-66
2021/09/07 06:13:05;;;;;;;16.98;8.32;;;;;;;15.79;100.00;101783.69;5012143;28;20113;-66
2021/09/07 06:15:31;;;;;;;18.20;7.22;;;;;;;15.79;100.00;101783.69;5005239;28;20421;-66
2021/09/07 06:17:56;;;;;;;14.50;7.45;;;;;;;15.88;100.00;101784.22;5010426;28;20045;-66
2021/09/07 06:20:23;;;;;;;19.27;8.45;;;;;;;15.98;100.00;101787.13;5003946;28;20116;-66
2021/09/07 06:22:49;;;;;;;21.40;8.77;;;;;;;16.10;100.00;101791.59;4986800;28;20100;-66
2021/09/07 06:25:14;;;;;;;18.88;8.38;;;;;;;16.23;100.00;101787.50;4996837;28;20026;-66
2021/09/07 06:27:39;;;;;;;17.35;8.10;;;;;;;16.33;100.00;101788.81;5012014;28;20041;-67
2021/09/07 06:30:06;;;;;;;17.98;7.88;;;;;;;16.49;100.00;101792.22;5008804;28;20121;-66
2021/09/07 06:32:31;;;;;;;18.77;8.02;;;;;;;16.58;100.00;101801.69;4994642;28;20097;-67
2021/09/07 06:34:58;;;;;;;18.17;8.07;;;;;;;16.69;100.00;101808.06;5016516;28;20038;-67
2021/09/07 06:37:24;;;;;;;22.00;7.40;;;;;;;16.85;100.00;101802.44;5011438;28;20168;-66
2021/09/07 06:39:50;;;;;;;13.48;6.80;;;;;;;17.09;100.00;101810.91;5004443;28;20465;-66
2021/09/07 06:42:15;;;;;;;14.73;6.30;;;;;;;17.37;100.00;101805.03;5006371;28;20379;-66
2021/09/07 06:44:41;;;;;;;12.70;6.13;;;;;;;17.66;100.00;101797.97;5021025;28;20117;-66
2021/09/07 06:47:06;;;;;;;13.77;6.40;;;;;;;17.91;100.00;101809.88;5010784;28;20109;-66
2021/09/07 06:49:31;;;;;;;14.85;6.47;;;;;;;18.09;100.00;101807.31;5016766;28;20069;-67
2021/09/07 06:51:57;;;;;;;11.18;5.63;;;;;;;18.18;100.00;101807.75;5005723;28;20057;-67
2021/09/07 06:54:22;;;;;;;13.60;5.78;;;;;;;18.33;100.00;101806.75;4997369;28;20026;-66
2021/09/07 06:56:48;;;;;;;13.20;5.90;;;;;;;18.38;100.00;101803.66;4999554;28;20040;-67
2021/09/07 06:59:13;;;;;;;9.82;5.60;;;;;;;18.45;100.00;101809.97;5011255;28;20069;-67
2021/09/07 07:01:39;;;;;;;12.90;5.95;;;;;;;18.50;100.00;101806.09;5002547;28;20038;-66
2021/09/07 07:04:04;;;;;;;12.60;6.00;;;;;;;18.44;99.91;101824.78;5004738;28;20393;-66
2021/09/07 07:06:30;;;;;;;12.60;5.22;;;;;;;18.44;99.31;101821.25;4992489;28;20030;-67
2021/09/07 07:08:55;;;;;;;11.75;4.57;;;;;;;18.37;99.41;101813.00;4989397;28;20092;-66
2021/09/07 07:11:21;;;;;;;9.88;4.80;;;;;;;18.29;99.02;101820.31;4997056;28;20053;-66
2021/09/07 07:13:46;;;;;;;10.30;4.97;;;;;;;18.29;99.60;101817.59;5010300;28;20080;-67
2021/09/07 07:16:12;;;;;;;12.30;5.20;;;;;;;18.39;99.59;101829.78;5011870;28;20045;-67
2021/09/07 07:18:37;;;;;;;10.02;4.47;;;;;;;18.64;98.58;101828.03;5009807;28;20414;-67
2021/09/07 07:21:03;;;;;;;12.40;5.60;;;;;;;18.75;98.06;101831.59;5003673;28;20060;-66
2021/09/07 07:23:28;;;;;;;10.77;4.70;;;;;;;18.88;97.32;101819.97;5007689;28;20025;-67
2021/09/07 07:25:54;;;;;;;9.95;5.00;;;;;;;19.00;96.72;101829.00;4988864;28;20033;-66
2021/09/07 07:28:20;;;;;;;9.50;4.93;;;;;;;19.16;96.54;101827.53;5008690;28;20032;-67
2021/09/07 07:30:45;;;;;;;9.25;4.80;;;;;;;19.36;95.81;101838.94;5009747;28;20704;-67
2021/09/07 07:33:11;;;;;;;9.52;3.97;;;;;;;19.54;94.69;101843.31;5012699;28;20029;-66
2021/09/07 07:35:36;;;;;;;6.65;4.18;;;;;;;19.63;93.89;101840.19;4997935;28;20076;-67
2021/09/07 07:38:02;;;;;;;7.95;3.67;;;;;;;19.71;92.86;101842.56;5007932;28;20042;-68
2021/09/07 07:40:27;;;;;;;6.82;3.25;;;;;;;19.85;91.23;101836.34;5009910;28;20053;-68
2021/09/07 07:42:53;;;;;;;7.93;3.78;;;;;;;19.92;90.82;101839.06;5013268;28;20044;-68
2021/09/07 07:45:18;;;;;;;6.57;3.15;;;;;;;20.01;90.46;101834.03;5014892;28;20045;-68
2021/09/07 07:47:44;;;;;;;6.53;3.40;;;;;;;20.14;90.27;101826.19;4991897;28;20042;-69
2021/09/07 07:50:10;;;;;;;5.55;2.80;;;;;;;20.23;89.39;101835.59;4993690;28;20029;-67
2021/09/07 07:52:36;;;;;;;7.22;3.22;;;;;;;20.41;88.29;101839.13;5009029;28;20033;-67
2021/09/07 07:55:22;;;;;;;9.00;2.78;;;;;;;20.51;87.84;101841.06;5009382;28;20037;-67
2021/09/07 07:57:47;;;;;;;6.68;2.70;;;;;;;20.48;88.16;101841.06;4930356;29;20078;-67
2021/09/07 08:00:13;;;;;;;5.35;2.75;;;;;;;20.64;87.03;101838.69;4921600;29;20476;-69
2021/09/07 08:02:39;;;;;;;6.22;3.03;;;;;;;20.69;86.83;101838.31;4922615;29;20452;-68
2021/09/07 08:05:05;;;;;;;6.70;3.20;;;;;;;20.84;85.21;101842.56;4910017;29;20483;-68
2021/09/07 08:07:30;;;;;;;6.25;2.95;;;;;;;20.82;83.86;101844.94;4919458;29;20034;-67
2021/09/07 08:09:56;;;;;;;4.93;3.03;;;;;;;21.01;83.86;101849.19;4929911;29;20067;-67
2021/09/07 08:12:22;;;;;;;4.40;2.60;;;;;;;21.11;83.10;101838.22;4928580;29;20047;-69
2021/09/07 08:14:48;;;;;;;5.40;3.03;;;;;;;21.31;83.28;101842.03;4920740;29;20094;-69
2021/09/07 08:17:14;;;;;;;6.32;2.53;;;;;;;21.50;83.49;101847.03;4925399;29;20445;-66
2021/09/07 08:19:40;;;;;;;5.88;3.05;;;;;;;21.58;83.30;101856.78;4927473;29;20039;-68
2021/09/07 08:22:09;;;;;;;5.75;2.65;;;;;;;21.77;81.36;101861.00;4920013;29;20063;-69
2021/09/07 08:24:34;;;;;;;5.05;2.90;;;;;;;21.86;80.55;101877.03;4921828;29;20030;-68
2021/09/07 08:27:00;;;;;;;4.47;2.53;;;;;;;21.84;78.73;101865.69;4925546;29;20051;-67
2021/09/07 08:29:25;;;;;;;3.85;2.10;;;;;;;21.89;78.43;101874.25;4927164;29;20134;-67
2021/09/07 08:31:50;;;;;;;5.20;2.50;;;;;;;21.76;77.15;101873.13;4925822;29;20055;-68
2021/09/07 08:34:16;;;;;;;5.22;2.53;;;;;;;21.85;78.75;101876.28;4949711;28;20096;-68
2021/09/07 08:36:41;;;;;;;4.88;2.67;;;;;;;21.94;77.56;101873.06;4998707;28;20666;-66
2021/09/07 08:39:07;;;;;;;4.05;2.47;;;;;;;21.90;76.22;101875.03;5008132;28;20545;-68
2021/09/07 08:41:32;;;;;;;4.97;2.70;;;;;;;21.89;76.48;101871.50;5009341;28;20044;-67
2021/09/07 08:43:58;;;;;;;4.38;2.60;;;;;;;22.03;77.78;101873.38;5000871;28;20129;-67
2021/09/07 08:46:24;;;;;;;4.90;2.33;;;;;;;22.06;78.33;101872.59;5002102;28;20216;-68
2021/09/07 08:48:49;;;;;;;4.20;2.33;;;;;;;22.13;78.46;101875.28;4999484;28;20042;-67
2021/09/07 08:51:16;;;;;;;3.83;2.60;;;;;;;22.15;76.71;101870.16;5009003;28;20030;-68
2021/09/07 08:53:42;;;;;;;3.60;2.22;;;;;;;22.16;75.82;101883.47;5016588;28;20033;-67
2021/09/07 08:56:09;;;;;;;5.07;2.22;;;;;;;22.22;75.50;101872.88;5025554;28;20437;-67
2021/09/07 08:58:35;;;;;;;3.90;2.33;;;;;;;22.22;74.90;101881.13;5003623;28;20042;-68
2021/09/07 09:01:14;;;;;;;4.72;2.25;;;;;;;22.22;74.44;101878.38;5007801;28;20048;-67
2021/09/07 09:03:41;;;;;;;4.18;2.10;;;;;;;22.35;73.52;101879.44;5006293;28;20045;-70
2021/09/07 09:06:07;;;;;;;3.55;1.90;;;;;;;22.33;72.38;101876.31;5008706;28;20088;-69
2021/09/07 09:08:34;;;;;;;3.05;2.15;;;;;;;22.32;73.52;101878.25;5008894;28;20033;-67
2021/09/07 09:11:10;;;;;;;4.78;2.42;;;;;;;22.38;72.61;101878.59;4987404;28;20035;-67
2021/09/07 09:13:45;;;;;;;3.00;1.60;;;;;;;22.58;71.36;101878.84;5006170;28;20037;-69
2021/09/07 09:16:11;;;;;;;6.05;2.22;;;;;;;22.74;70.18;101879.09;5008943;28;20037;-67
2021/09/07 09:18:39;;;;;;;3.88;2.28;;;;;;;22.89;69.86;101880.50;5001200;28;20054;-68
2021/09/07 09:21:24;;;;;;;4.43;1.95;;;;;;;23.08;70.80;101890.91;5008381;28;20045;-67
2021/09/07 09:24:19;;;;;;;5.70;1.77;;;;;;;23.17;70.96;101888.47;5007151;28;20113;-68
2021/09/07 09:27:03;;;;;;;2.42;1.67;;;;;;;23.27;67.26;101877.31;5006948;28;20045;-67
2021/09/07 09:29:31;;;;;;;3.15;1.65;;;;;;;23.35;65.49;101871.75;5015078;28;20036;-68
2021/09/07 09:32:01;;;;;;;2.65;1.70;;;;;;;23.32;65.25;101867.88;5008544;28;20034;-69
2021/09/07 09:34:28;;;;;;;2.70;1.53;;;;;;;23.54;64.17;101865.66;5012696;28;20121;-68
2021/09/07 09:36:58;;;;;;;2.97;1.75;;;;;;;23.68;64.00;101852.44;5011144;28;20285;-68
2021/09/07 09:39:50;;;;;;;4.03;1.70;;;;;;;23.61;63.35;101849.81;5014986;28;20536;-68
2021/09/07 09:42:23;;;;;;;3.67;1.70;;;;;;;23.73;63.78;101851.22;5014996;28;20124;-68
2021/09/07 09:44:49;;;;;;;3.28;1.67;;;;;;;23.80;62.49;101853.84;5014115;28;20092;-69
2021/09/07 09:47:32;;;;;;;2.13;1.25;;;;;;;24.00;61.40;101861.00;5001155;28;20018;-67
2021/09/07 09:49:58;;;;;;;3.67;1.45;;;;;;;24.22;61.55;101855.97;5010868;28;20788;-68
2021/09/07 09:52:23;;;;;;;2.65;1.60;;;;;;;24.35;59.55;101856.16;5008078;28;20037;-67
2021/09/07 09:54:50;;;;;;;3.13;1.92;;;;;;;24.33;59.83;101856.56;5009772;28;20598;-68
2021/09/07 09:57:16;;;;;;;4.30;1.95;;;;;;;24.36;56.42;101850.22;5011637;28;20049;-67
2021/09/07 09:59:44;;;;;;;3.72;1.55;;;;;;;24.57;54.98;101849.84;5012146;28;20037;-68
2021/09/07 10:02:12;;;;;;;2.50;1.13;;;;;;;24.66;54.59;101844.56;5021244;22;20042;-67
2021/09/07 10:04:38;;;;;;;1.83;1.10;;;;;;;24.76;53.24;101857.41;5010813;28;20113;-70
2021/09/07 10:07:04;;;;;;;2.47;1.48;;;;;;;24.82;54.35;101852.19;5007298;28;20113;-70
2021/09/07 10:09:30;;;;;;;2.35;1.60;;;;;;;25.04;54.78;101862.38;5008549;28;20121;-69
2021/09/07 10:12:18;;;;;;;2.85;1.45;;;;;;;25.15;54.33;101853.88;5001988;28;20125;-68
2021/09/07 10:15:22;;;;;;;3.13;1.77;;;;;;;25.35;55.43;101860.16;5009783;28;20364;-69
2021/09/07 10:17:56;;;;;;;1.58;1.30;;;;;;;25.45;55.52;101852.91;5011388;28;20139;-69
2021/09/07 10:20:46;;;;;;;3.08;1.45;;;;;;;25.44;55.54;101854.88;4989617;28;20034;-68
2021/09/07 10:23:31;;;;;;;4.30;1.63;;;;;;;25.48;53.83;101852.03;5003837;28;20034;-69
2021/09/07 10:26:02;;;;;;;3.92;1.52;;;;;;;25.69;53.70;101855.09;5004591;28;20410;-69
2021/09/07 10:28:37;;;;;;;5.57;2.20;;;;;;;25.64;52.31;101849.31;5003978;28;20038;-69
2021/09/07 10:31:18;;;;;;;3.22;1.45;;;;;;;25.69;52.94;101849.59;5008108;28;20033;-68
2021/09/07 10:33:45;;;;;;;2.30;1.43;;;;;;;25.60;51.94;101854.13;5005588;28;20403;-68
2021/09/07 10:36:16;;;;;;;2.28;1.20;;;;;;;25.52;52.44;101844.44;5010630;28;20037;-68
2021/09/07 10:38:44;;;;;;;2.72;1.75;;;;;;;25.50;51.85;101849.63;5006826;28;20125;-68
2021/09/07 10:41:32;;;;;;;2.15;1.45;;;;;;;25.53;50.54;101838.50;4992353;28;20136;-69
2021/09/07 10:44:17;;;;;;;3.08;1.73;;;;;;;25.57;52.25;101838.44;4990992;28;20025;-68
2021/09/07 10:46:47;;;;;;;5.38;2.17;;;;;;;25.41;51.89;101833.66;5003382;28;20037;-68
2021/09/07 10:49:22;;;;;;;2.15;1.50;;;;;;;25.52;52.81;101831.44;5010424;28;20034;-69
2021/09/07 10:52:09;;;;;;;2.17;1.40;;;;;;;25.57;52.03;101833.69;4997282;28;20168;-69
2021/09/07 10:54:41;;;;;;;2.08;1.48;;;;;;;25.72;52.32;101834.94;5007534;28;20033;-69
2021/09/07 10:57:08;;;;;;;2.80;1.23;;;;;;;25.86;52.08;101836.59;4993886;28;20093;-69
2021/09/07 10:59:53;;;;;;;2.58;1.25;;;;;;;25.76;51.42;101835.59;5009942;28;20040;-68
2021/09/07 11:02:36;;;;;;;2.47;1.60;;;;;;;25.97;50.82;101828.03;5005973;28;20041;-69
2021/09/07 11:05:04;;;;;;;2.17;1.40;;;;;;;26.02;50.49;101839.34;4992662;28;20095;-69
2021/09/07 11:07:32;;;;;;;2.20;1.50;;;;;;;26.24;52.49;101834.88;5006836;28;20460;-69
2021/09/07 11:09:58;;;;;;;2.20;1.50;;;;;;;26.27;51.58;101830.44;5003816;28;20037;-69
2021/09/07 11:12:29;;;;;;;3.00;1.42;;;;;;;26.08;51.45;101832.13;5007757;28;20119;-69
2021/09/07 11:15:02;;;;;;;;;;;;;;;26.06;51.56;101839.28;5003994;28;20204;-69